Aviation Digital Data Service (ADDS)

Output produced by METARs form (1607 UTC 23 September 2020)
found at http://aviationweather.gov/metar/data/
 
KAEX 231548Z 2316/2412 09010KT 4SM -RA BR BKN009 OVC013 
     TEMPO 2316/2320 VRB10G18KT 1SM +SHRA OVC007 
     FM240000 02010G15KT P6SM VCSH OVC015 
     FM240600 02011KT P6SM OVC007